sensor_id;sensor_type;location;lat;lon;timestamp;P1;durP1;ratioP1;P2;durP2;ratioP2
69783;SDS011;57054;51.978;4.498;2023-04-08T00:00:17;16.58;;;11.52;;
69783;SDS011;57054;51.978;4.498;2023-04-08T00:02:43;22.63;;;13.05;;
69783;SDS011;57054;51.978;4.498;2023-04-08T00:05:08;17.70;;;11.43;;
69783;SDS011;57054;51.978;4.498;2023-04-08T00:07:34;17.95;;;11.98;;
69783;SDS011;57054;51.978;4.498;2023-04-08T00:10:00;17.95;;;11.45;;
69783;SDS011;57054;51.978;4.498;2023-04-08T00:12:25;17.73;;;11.85;;
69783;SDS011;57054;51.978;4.498;2023-04-08T00:14:50;15.80;;;11.48;;
69783;SDS011;57054;51.978;4.498;2023-04-08T00:17:16;12.43;;;10.18;;
69783;SDS011;57054;51.978;4.498;2023-04-08T00:19:42;18.67;;;11.75;;
69783;SDS011;57054;51.978;4.498;2023-04-08T00:22:07;17.02;;;11.52;;
69783;SDS011;57054;51.978;4.498;2023-04-08T00:24:33;17.08;;;11.88;;
69783;SDS011;57054;51.978;4.498;2023-04-08T00:26:58;19.90;;;12.82;;
69783;SDS011;57054;51.978;4.498;2023-04-08T00:29:23;22.17;;;12.05;;
69783;SDS011;57054;51.978;4.498;2023-04-08T00:31:49;18.92;;;12.02;;
69783;SDS011;57054;51.978;4.498;2023-04-08T00:34:15;17.35;;;11.43;;
69783;SDS011;57054;51.978;4.498;2023-04-08T00:36:41;19.63;;;11.25;;
69783;SDS011;57054;51.978;4.498;2023-04-08T00:39:06;20.50;;;12.70;;
69783;SDS011;57054;51.978;4.498;2023-04-08T00:41:34;16.70;;;11.93;;
69783;SDS011;57054;51.978;4.498;2023-04-08T00:44:00;16.00;;;11.83;;
69783;SDS011;57054;51.978;4.498;2023-04-08T00:46:26;15.10;;;10.77;;
69783;SDS011;57054;51.978;4.498;2023-04-08T00:48:51;20.10;;;12.95;;
69783;SDS011;57054;51.978;4.498;2023-04-08T00:51:17;19.83;;;11.20;;
69783;SDS011;57054;51.978;4.498;2023-04-08T00:53:43;20.40;;;12.25;;
69783;SDS011;57054;51.978;4.498;2023-04-08T00:56:09;21.33;;;12.68;;
69783;SDS011;57054;51.978;4.498;2023-04-08T00:58:35;18.63;;;12.15;;
69783;SDS011;57054;51.978;4.498;2023-04-08T01:01:21;20.20;;;12.75;;
69783;SDS011;57054;51.978;4.498;2023-04-08T01:03:58;17.00;;;12.13;;
69783;SDS011;57054;51.978;4.498;2023-04-08T01:06:38;17.48;;;11.32;;
69783;SDS011;57054;51.978;4.498;2023-04-08T01:09:12;20.60;;;13.60;;
69783;SDS011;57054;51.978;4.498;2023-04-08T01:11:40;17.67;;;12.40;;
69783;SDS011;57054;51.978;4.498;2023-04-08T01:14:08;20.08;;;13.23;;
69783;SDS011;57054;51.978;4.498;2023-04-08T01:16:36;21.73;;;13.95;;
69783;SDS011;57054;51.978;4.498;2023-04-08T01:19:05;27.88;;;15.30;;
69783;SDS011;57054;51.978;4.498;2023-04-08T01:21:32;24.40;;;14.60;;
69783;SDS011;57054;51.978;4.498;2023-04-08T01:24:13;23.90;;;14.57;;
69783;SDS011;57054;51.978;4.498;2023-04-08T01:26:47;22.52;;;14.30;;
69783;SDS011;57054;51.978;4.498;2023-04-08T01:29:14;22.65;;;13.98;;
69783;SDS011;57054;51.978;4.498;2023-04-08T01:31:41;27.67;;;15.52;;
69783;SDS011;57054;51.978;4.498;2023-04-08T01:34:07;27.15;;;15.48;;
69783;SDS011;57054;51.978;4.498;2023-04-08T01:36:36;22.70;;;15.50;;
69783;SDS011;57054;51.978;4.498;2023-04-08T01:39:02;26.00;;;14.90;;
69783;SDS011;57054;51.978;4.498;2023-04-08T01:41:29;25.55;;;15.15;;
69783;SDS011;57054;51.978;4.498;2023-04-08T01:43:57;25.27;;;15.15;;
69783;SDS011;57054;51.978;4.498;2023-04-08T01:46:23;25.30;;;15.43;;
69783;SDS011;57054;51.978;4.498;2023-04-08T01:48:48;25.67;;;15.48;;
69783;SDS011;57054;51.978;4.498;2023-04-08T01:51:15;22.00;;;14.25;;
69783;SDS011;57054;51.978;4.498;2023-04-08T01:53:41;27.10;;;15.88;;
69783;SDS011;57054;51.978;4.498;2023-04-08T01:56:10;26.77;;;15.77;;
69783;SDS011;57054;51.978;4.498;2023-04-08T01:58:42;23.05;;;16.63;;
69783;SDS011;57054;51.978;4.498;2023-04-08T02:01:13;25.63;;;16.05;;
69783;SDS011;57054;51.978;4.498;2023-04-08T02:03:42;22.63;;;14.23;;
69783;SDS011;57054;51.978;4.498;2023-04-08T02:06:09;23.50;;;14.82;;
69783;SDS011;57054;51.978;4.498;2023-04-08T02:08:35;27.30;;;16.00;;
69783;SDS011;57054;51.978;4.498;2023-04-08T02:11:00;26.13;;;15.63;;
69783;SDS011;57054;51.978;4.498;2023-04-08T02:13:27;27.60;;;16.27;;
69783;SDS011;57054;51.978;4.498;2023-04-08T02:15:56;26.63;;;15.20;;
69783;SDS011;57054;51.978;4.498;2023-04-08T02:18:28;24.55;;;15.30;;
69783;SDS011;57054;51.978;4.498;2023-04-08T02:20:58;26.05;;;15.65;;
69783;SDS011;57054;51.978;4.498;2023-04-08T02:23:47;25.70;;;15.75;;
69783;SDS011;57054;51.978;4.498;2023-04-08T02:26:15;26.13;;;15.52;;
69783;SDS011;57054;51.978;4.498;2023-04-08T02:28:41;26.73;;;16.05;;
69783;SDS011;57054;51.978;4.498;2023-04-08T02:31:08;28.00;;;16.98;;
69783;SDS011;57054;51.978;4.498;2023-04-08T02:33:37;24.58;;;15.77;;
69783;SDS011;57054;51.978;4.498;2023-04-08T02:36:03;28.63;;;16.38;;
69783;SDS011;57054;51.978;4.498;2023-04-08T02:38:30;25.27;;;15.15;;
69783;SDS011;57054;51.978;4.498;2023-04-08T02:40:56;31.50;;;17.33;;
69783;SDS011;57054;51.978;4.498;2023-04-08T02:43:22;25.42;;;15.93;;
69783;SDS011;57054;51.978;4.498;2023-04-08T02:45:55;25.48;;;16.15;;
69783;SDS011;57054;51.978;4.498;2023-04-08T02:48:21;26.92;;;16.02;;
69783;SDS011;57054;51.978;4.498;2023-04-08T02:50:46;29.80;;;15.90;;
69783;SDS011;57054;51.978;4.498;2023-04-08T02:53:12;29.00;;;17.00;;
69783;SDS011;57054;51.978;4.498;2023-04-08T02:55:37;28.02;;;16.95;;
69783;SDS011;57054;51.978;4.498;2023-04-08T02:58:03;28.95;;;16.17;;
69783;SDS011;57054;51.978;4.498;2023-04-08T03:00:28;24.35;;;15.63;;
69783;SDS011;57054;51.978;4.498;2023-04-08T03:02:54;26.83;;;15.10;;
69783;SDS011;57054;51.978;4.498;2023-04-08T03:05:19;30.05;;;16.92;;
69783;SDS011;57054;51.978;4.498;2023-04-08T03:07:45;29.05;;;16.90;;
69783;SDS011;57054;51.978;4.498;2023-04-08T03:10:11;28.42;;;16.08;;
69783;SDS011;57054;51.978;4.498;2023-04-08T03:12:36;28.95;;;17.17;;
69783;SDS011;57054;51.978;4.498;2023-04-08T03:15:02;28.65;;;16.52;;
69783;SDS011;57054;51.978;4.498;2023-04-08T03:17:27;31.55;;;17.25;;
69783;SDS011;57054;51.978;4.498;2023-04-08T03:19:53;30.70;;;16.35;;
69783;SDS011;57054;51.978;4.498;2023-04-08T03:22:18;27.83;;;15.88;;
69783;SDS011;57054;51.978;4.498;2023-04-08T03:24:44;31.23;;;16.77;;
69783;SDS011;57054;51.978;4.498;2023-04-08T03:27:10;29.35;;;17.58;;
69783;SDS011;57054;51.978;4.498;2023-04-08T03:29:36;27.80;;;16.20;;
69783;SDS011;57054;51.978;4.498;2023-04-08T03:32:02;27.88;;;16.08;;
69783;SDS011;57054;51.978;4.498;2023-04-08T03:34:27;30.90;;;16.60;;
69783;SDS011;57054;51.978;4.498;2023-04-08T03:36:52;28.70;;;16.08;;
69783;SDS011;57054;51.978;4.498;2023-04-08T03:39:18;26.80;;;16.23;;
69783;SDS011;57054;51.978;4.498;2023-04-08T03:41:44;26.77;;;16.05;;
69783;SDS011;57054;51.978;4.498;2023-04-08T03:44:09;25.00;;;15.93;;
69783;SDS011;57054;51.978;4.498;2023-04-08T03:46:34;26.80;;;15.48;;
69783;SDS011;57054;51.978;4.498;2023-04-08T03:49:00;28.75;;;15.27;;
69783;SDS011;57054;51.978;4.498;2023-04-08T03:51:25;26.67;;;15.93;;
69783;SDS011;57054;51.978;4.498;2023-04-08T03:53:52;27.40;;;16.15;;
69783;SDS011;57054;51.978;4.498;2023-04-08T03:56:17;25.95;;;15.35;;
69783;SDS011;57054;51.978;4.498;2023-04-08T03:58:43;29.33;;;15.63;;
69783;SDS011;57054;51.978;4.498;2023-04-08T04:01:08;31.38;;;16.10;;
69783;SDS011;57054;51.978;4.498;2023-04-08T04:03:33;27.42;;;16.20;;
69783;SDS011;57054;51.978;4.498;2023-04-08T04:05:59;27.45;;;15.43;;
69783;SDS011;57054;51.978;4.498;2023-04-08T04:08:24;27.48;;;16.38;;
69783;SDS011;57054;51.978;4.498;2023-04-08T04:10:49;29.75;;;16.20;;
69783;SDS011;57054;51.978;4.498;2023-04-08T04:13:15;29.20;;;17.17;;
69783;SDS011;57054;51.978;4.498;2023-04-08T04:15:41;29.83;;;16.77;;
69783;SDS011;57054;51.978;4.498;2023-04-08T04:18:06;28.92;;;16.52;;
69783;SDS011;57054;51.978;4.498;2023-04-08T04:20:32;26.55;;;15.68;;
69783;SDS011;57054;51.978;4.498;2023-04-08T04:22:57;27.98;;;16.17;;
69783;SDS011;57054;51.978;4.498;2023-04-08T04:25:23;26.65;;;16.33;;
69783;SDS011;57054;51.978;4.498;2023-04-08T04:27:48;30.00;;;16.75;;
69783;SDS011;57054;51.978;4.498;2023-04-08T04:30:14;29.73;;;16.48;;
69783;SDS011;57054;51.978;4.498;2023-04-08T04:32:42;28.75;;;16.20;;
69783;SDS011;57054;51.978;4.498;2023-04-08T04:35:11;31.08;;;17.02;;
69783;SDS011;57054;51.978;4.498;2023-04-08T04:37:37;30.00;;;17.23;;
69783;SDS011;57054;51.978;4.498;2023-04-08T04:40:03;32.25;;;17.48;;
69783;SDS011;57054;51.978;4.498;2023-04-08T04:42:29;27.30;;;16.15;;
69783;SDS011;57054;51.978;4.498;2023-04-08T04:44:54;30.60;;;17.33;;
69783;SDS011;57054;51.978;4.498;2023-04-08T04:47:20;31.30;;;17.92;;
69783;SDS011;57054;51.978;4.498;2023-04-08T04:49:45;29.67;;;17.83;;
69783;SDS011;57054;51.978;4.498;2023-04-08T04:52:10;37.00;;;19.95;;
69783;SDS011;57054;51.978;4.498;2023-04-08T04:54:36;31.92;;;18.08;;
69783;SDS011;57054;51.978;4.498;2023-04-08T04:57:01;30.60;;;19.25;;
69783;SDS011;57054;51.978;4.498;2023-04-08T04:59:27;29.77;;;17.75;;
69783;SDS011;57054;51.978;4.498;2023-04-08T05:01:52;28.88;;;18.25;;
69783;SDS011;57054;51.978;4.498;2023-04-08T05:04:17;29.60;;;17.75;;
69783;SDS011;57054;51.978;4.498;2023-04-08T05:06:43;28.80;;;17.40;;
69783;SDS011;57054;51.978;4.498;2023-04-08T05:09:08;29.00;;;17.33;;
69783;SDS011;57054;51.978;4.498;2023-04-08T05:11:33;29.25;;;18.10;;
69783;SDS011;57054;51.978;4.498;2023-04-08T05:13:59;25.98;;;16.58;;
69783;SDS011;57054;51.978;4.498;2023-04-08T05:16:24;29.52;;;18.35;;
69783;SDS011;57054;51.978;4.498;2023-04-08T05:18:50;26.92;;;17.15;;
69783;SDS011;57054;51.978;4.498;2023-04-08T05:21:15;28.13;;;18.23;;
69783;SDS011;57054;51.978;4.498;2023-04-08T05:23:40;31.90;;;19.27;;
69783;SDS011;57054;51.978;4.498;2023-04-08T05:26:06;29.63;;;18.02;;
69783;SDS011;57054;51.978;4.498;2023-04-08T05:28:33;28.58;;;17.65;;
69783;SDS011;57054;51.978;4.498;2023-04-08T05:30:58;29.80;;;18.23;;
69783;SDS011;57054;51.978;4.498;2023-04-08T05:33:23;29.30;;;17.90;;
69783;SDS011;57054;51.978;4.498;2023-04-08T05:35:50;27.48;;;16.38;;
69783;SDS011;57054;51.978;4.498;2023-04-08T05:38:17;26.58;;;16.23;;
69783;SDS011;57054;51.978;4.498;2023-04-08T05:40:42;28.73;;;17.42;;
69783;SDS011;57054;51.978;4.498;2023-04-08T05:43:08;27.15;;;17.58;;
69783;SDS011;57054;51.978;4.498;2023-04-08T05:45:33;27.58;;;16.95;;
69783;SDS011;57054;51.978;4.498;2023-04-08T05:47:58;33.40;;;18.02;;
69783;SDS011;57054;51.978;4.498;2023-04-08T05:50:24;27.73;;;16.60;;
69783;SDS011;57054;51.978;4.498;2023-04-08T05:52:49;27.88;;;17.20;;
69783;SDS011;57054;51.978;4.498;2023-04-08T05:55:14;25.77;;;16.08;;
69783;SDS011;57054;51.978;4.498;2023-04-08T05:57:40;28.98;;;16.55;;
69783;SDS011;57054;51.978;4.498;2023-04-08T06:00:06;25.42;;;16.05;;
69783;SDS011;57054;51.978;4.498;2023-04-08T06:02:33;27.80;;;16.00;;
69783;SDS011;57054;51.978;4.498;2023-04-08T06:05:00;28.63;;;16.42;;
69783;SDS011;57054;51.978;4.498;2023-04-08T06:07:25;26.17;;;16.20;;
69783;SDS011;57054;51.978;4.498;2023-04-08T06:09:51;26.42;;;16.13;;
69783;SDS011;57054;51.978;4.498;2023-04-08T06:12:16;24.60;;;16.35;;
69783;SDS011;57054;51.978;4.498;2023-04-08T06:14:41;28.98;;;17.30;;
69783;SDS011;57054;51.978;4.498;2023-04-08T06:17:07;27.10;;;16.02;;
69783;SDS011;57054;51.978;4.498;2023-04-08T06:19:32;29.38;;;16.70;;
69783;SDS011;57054;51.978;4.498;2023-04-08T06:21:59;28.70;;;16.88;;
69783;SDS011;57054;51.978;4.498;2023-04-08T06:24:25;26.58;;;15.52;;
69783;SDS011;57054;51.978;4.498;2023-04-08T06:26:51;27.38;;;15.25;;
69783;SDS011;57054;51.978;4.498;2023-04-08T06:29:17;26.27;;;15.98;;
69783;SDS011;57054;51.978;4.498;2023-04-08T06:31:43;25.48;;;15.60;;
69783;SDS011;57054;51.978;4.498;2023-04-08T06:34:08;25.88;;;16.63;;
69783;SDS011;57054;51.978;4.498;2023-04-08T06:36:34;24.02;;;15.48;;
69783;SDS011;57054;51.978;4.498;2023-04-08T06:38:59;25.30;;;15.52;;
69783;SDS011;57054;51.978;4.498;2023-04-08T06:41:24;23.83;;;14.32;;
69783;SDS011;57054;51.978;4.498;2023-04-08T06:43:50;24.38;;;15.48;;
69783;SDS011;57054;51.978;4.498;2023-04-08T06:46:15;23.45;;;15.45;;
69783;SDS011;57054;51.978;4.498;2023-04-08T06:48:40;24.00;;;14.50;;
69783;SDS011;57054;51.978;4.498;2023-04-08T06:51:06;23.85;;;14.63;;
69783;SDS011;57054;51.978;4.498;2023-04-08T06:53:32;21.95;;;13.60;;
69783;SDS011;57054;51.978;4.498;2023-04-08T06:55:57;21.17;;;13.45;;
69783;SDS011;57054;51.978;4.498;2023-04-08T06:58:23;17.77;;;12.35;;
69783;SDS011;57054;51.978;4.498;2023-04-08T07:00:48;23.65;;;14.23;;
69783;SDS011;57054;51.978;4.498;2023-04-08T07:03:14;24.83;;;14.88;;
69783;SDS011;57054;51.978;4.498;2023-04-08T07:05:39;25.70;;;15.60;;
69783;SDS011;57054;51.978;4.498;2023-04-08T07:08:06;25.75;;;15.38;;
69783;SDS011;57054;51.978;4.498;2023-04-08T07:10:31;24.40;;;14.43;;
69783;SDS011;57054;51.978;4.498;2023-04-08T07:12:58;24.23;;;15.70;;
69783;SDS011;57054;51.978;4.498;2023-04-08T07:15:24;23.70;;;15.07;;
69783;SDS011;57054;51.978;4.498;2023-04-08T07:17:49;27.83;;;16.83;;
69783;SDS011;57054;51.978;4.498;2023-04-08T07:20:15;28.50;;;17.15;;
69783;SDS011;57054;51.978;4.498;2023-04-08T07:22:41;31.50;;;17.83;;
69783;SDS011;57054;51.978;4.498;2023-04-08T07:25:06;30.40;;;16.80;;
69783;SDS011;57054;51.978;4.498;2023-04-08T07:27:32;27.77;;;16.58;;
69783;SDS011;57054;51.978;4.498;2023-04-08T07:29:58;31.02;;;17.17;;
69783;SDS011;57054;51.978;4.498;2023-04-08T07:32:24;29.40;;;16.73;;
69783;SDS011;57054;51.978;4.498;2023-04-08T07:34:49;29.27;;;16.73;;
69783;SDS011;57054;51.978;4.498;2023-04-08T07:37:15;32.50;;;17.80;;
69783;SDS011;57054;51.978;4.498;2023-04-08T07:39:41;31.55;;;18.13;;
69783;SDS011;57054;51.978;4.498;2023-04-08T07:42:07;33.70;;;20.13;;
69783;SDS011;57054;51.978;4.498;2023-04-08T07:44:32;41.50;;;20.80;;
69783;SDS011;57054;51.978;4.498;2023-04-08T07:46:57;38.85;;;20.33;;
69783;SDS011;57054;51.978;4.498;2023-04-08T07:49:23;35.28;;;19.77;;
69783;SDS011;57054;51.978;4.498;2023-04-08T07:51:48;40.25;;;21.33;;
69783;SDS011;57054;51.978;4.498;2023-04-08T07:54:14;39.72;;;20.80;;
69783;SDS011;57054;51.978;4.498;2023-04-08T07:56:41;36.00;;;19.50;;
69783;SDS011;57054;51.978;4.498;2023-04-08T07:59:08;45.05;;;22.77;;
69783;SDS011;57054;51.978;4.498;2023-04-08T08:01:34;40.97;;;21.58;;
69783;SDS011;57054;51.978;4.498;2023-04-08T08:04:00;39.15;;;21.00;;
69783;SDS011;57054;51.978;4.498;2023-04-08T08:06:26;43.33;;;23.65;;
69783;SDS011;57054;51.978;4.498;2023-04-08T08:08:52;44.33;;;24.60;;
69783;SDS011;57054;51.978;4.498;2023-04-08T08:11:17;42.95;;;24.20;;
69783;SDS011;57054;51.978;4.498;2023-04-08T08:13:43;42.78;;;24.15;;
69783;SDS011;57054;51.978;4.498;2023-04-08T08:16:09;44.97;;;24.80;;
69783;SDS011;57054;51.978;4.498;2023-04-08T08:18:35;46.85;;;24.92;;
69783;SDS011;57054;51.978;4.498;2023-04-08T08:21:01;43.22;;;25.13;;
69783;SDS011;57054;51.978;4.498;2023-04-08T08:23:27;46.90;;;25.75;;
69783;SDS011;57054;51.978;4.498;2023-04-08T08:26:02;47.65;;;28.05;;
69783;SDS011;57054;51.978;4.498;2023-04-08T08:28:30;47.60;;;26.73;;
69783;SDS011;57054;51.978;4.498;2023-04-08T08:30:56;51.08;;;27.42;;
69783;SDS011;57054;51.978;4.498;2023-04-08T08:33:21;50.70;;;27.00;;
69783;SDS011;57054;51.978;4.498;2023-04-08T08:35:46;48.88;;;26.63;;
69783;SDS011;57054;51.978;4.498;2023-04-08T08:38:12;44.90;;;26.52;;
69783;SDS011;57054;51.978;4.498;2023-04-08T08:40:38;48.17;;;26.55;;
69783;SDS011;57054;51.978;4.498;2023-04-08T08:43:03;48.60;;;26.17;;
69783;SDS011;57054;51.978;4.498;2023-04-08T08:45:29;46.10;;;26.35;;
69783;SDS011;57054;51.978;4.498;2023-04-08T08:47:55;46.80;;;26.25;;
69783;SDS011;57054;51.978;4.498;2023-04-08T08:50:24;42.22;;;25.10;;
69783;SDS011;57054;51.978;4.498;2023-04-08T08:52:50;46.40;;;26.67;;
69783;SDS011;57054;51.978;4.498;2023-04-08T08:55:19;43.95;;;25.55;;
69783;SDS011;57054;51.978;4.498;2023-04-08T08:57:45;44.78;;;25.27;;
69783;SDS011;57054;51.978;4.498;2023-04-08T09:00:12;43.03;;;24.55;;
69783;SDS011;57054;51.978;4.498;2023-04-08T09:02:40;40.42;;;24.05;;
69783;SDS011;57054;51.978;4.498;2023-04-08T09:05:06;36.35;;;23.13;;
69783;SDS011;57054;51.978;4.498;2023-04-08T09:07:34;32.63;;;21.55;;
69783;SDS011;57054;51.978;4.498;2023-04-08T09:12:26;33.08;;;20.77;;
69783;SDS011;57054;51.978;4.498;2023-04-08T09:15:02;31.30;;;21.02;;
69783;SDS011;57054;51.978;4.498;2023-04-08T09:17:33;34.75;;;22.65;;
69783;SDS011;57054;51.978;4.498;2023-04-08T09:20:03;33.75;;;23.00;;
69783;SDS011;57054;51.978;4.498;2023-04-08T09:25:23;36.88;;;24.50;;
69783;SDS011;57054;51.978;4.498;2023-04-08T09:27:52;34.00;;;23.20;;
69783;SDS011;57054;51.978;4.498;2023-04-08T09:30:18;30.33;;;21.42;;
69783;SDS011;57054;51.978;4.498;2023-04-08T09:32:48;34.05;;;22.70;;
69783;SDS011;57054;51.978;4.498;2023-04-08T09:35:13;31.25;;;22.77;;
69783;SDS011;57054;51.978;4.498;2023-04-08T09:37:41;32.10;;;21.90;;
69783;SDS011;57054;51.978;4.498;2023-04-08T09:40:06;34.05;;;22.75;;
69783;SDS011;57054;51.978;4.498;2023-04-08T09:42:43;33.00;;;23.05;;
69783;SDS011;57054;51.978;4.498;2023-04-08T09:45:10;31.13;;;22.35;;
69783;SDS011;57054;51.978;4.498;2023-04-08T09:48:01;31.40;;;21.95;;
69783;SDS011;57054;51.978;4.498;2023-04-08T09:50:35;32.10;;;22.17;;
69783;SDS011;57054;51.978;4.498;2023-04-08T09:53:09;30.52;;;22.48;;
69783;SDS011;57054;51.978;4.498;2023-04-08T09:55:40;33.95;;;22.58;;
69783;SDS011;57054;51.978;4.498;2023-04-08T09:58:10;32.37;;;23.90;;
69783;SDS011;57054;51.978;4.498;2023-04-08T10:00:41;36.08;;;25.02;;
69783;SDS011;57054;51.978;4.498;2023-04-08T10:05:49;36.45;;;24.60;;
69783;SDS011;57054;51.978;4.498;2023-04-08T10:08:16;35.22;;;24.23;;
69783;SDS011;57054;51.978;4.498;2023-04-08T10:10:42;32.78;;;23.23;;
69783;SDS011;57054;51.978;4.498;2023-04-08T10:13:08;28.15;;;21.77;;
69783;SDS011;57054;51.978;4.498;2023-04-08T10:15:34;29.55;;;21.98;;
69783;SDS011;57054;51.978;4.498;2023-04-08T10:22:59;26.88;;;20.27;;
69783;SDS011;57054;51.978;4.498;2023-04-08T10:27:50;24.98;;;20.15;;
69783;SDS011;57054;51.978;4.498;2023-04-08T10:32:50;26.83;;;20.48;;
69783;SDS011;57054;51.978;4.498;2023-04-08T10:35:15;25.58;;;20.95;;
69783;SDS011;57054;51.978;4.498;2023-04-08T10:37:41;22.58;;;19.10;;
69783;SDS011;57054;51.978;4.498;2023-04-08T10:40:17;22.92;;;18.23;;
69783;SDS011;57054;51.978;4.498;2023-04-08T10:42:43;21.70;;;16.70;;
69783;SDS011;57054;51.978;4.498;2023-04-08T10:45:09;69.95;;;33.72;;
69783;SDS011;57054;51.978;4.498;2023-04-08T10:47:34;24.98;;;19.02;;
69783;SDS011;57054;51.978;4.498;2023-04-08T10:50:10;26.33;;;19.10;;
69783;SDS011;57054;51.978;4.498;2023-04-08T10:52:45;28.27;;;19.05;;
69783;SDS011;57054;51.978;4.498;2023-04-08T10:55:14;24.92;;;17.85;;
69783;SDS011;57054;51.978;4.498;2023-04-08T10:57:40;21.15;;;16.92;;
69783;SDS011;57054;51.978;4.498;2023-04-08T11:00:09;23.70;;;17.98;;
69783;SDS011;57054;51.978;4.498;2023-04-08T11:02:38;20.90;;;16.45;;
69783;SDS011;57054;51.978;4.498;2023-04-08T11:05:04;20.95;;;16.02;;
69783;SDS011;57054;51.978;4.498;2023-04-08T11:07:30;20.48;;;16.27;;
69783;SDS011;57054;51.978;4.498;2023-04-08T11:09:55;21.02;;;16.73;;
69783;SDS011;57054;51.978;4.498;2023-04-08T11:12:21;21.17;;;16.98;;
69783;SDS011;57054;51.978;4.498;2023-04-08T11:14:47;24.00;;;17.75;;
69783;SDS011;57054;51.978;4.498;2023-04-08T11:17:16;24.40;;;17.05;;
69783;SDS011;57054;51.978;4.498;2023-04-08T11:19:42;23.27;;;16.42;;
69783;SDS011;57054;51.978;4.498;2023-04-08T11:22:08;24.55;;;18.27;;
69783;SDS011;57054;51.978;4.498;2023-04-08T11:24:36;21.92;;;17.40;;
69783;SDS011;57054;51.978;4.498;2023-04-08T11:27:05;19.83;;;16.02;;
69783;SDS011;57054;51.978;4.498;2023-04-08T11:29:31;18.50;;;15.15;;
69783;SDS011;57054;51.978;4.498;2023-04-08T11:31:57;17.05;;;14.35;;
69783;SDS011;57054;51.978;4.498;2023-04-08T11:34:23;15.90;;;12.95;;
69783;SDS011;57054;51.978;4.498;2023-04-08T11:36:52;17.80;;;13.48;;
69783;SDS011;57054;51.978;4.498;2023-04-08T11:39:17;17.27;;;13.38;;
69783;SDS011;57054;51.978;4.498;2023-04-08T11:41:46;15.38;;;12.50;;
69783;SDS011;57054;51.978;4.498;2023-04-08T11:44:12;15.77;;;12.32;;
69783;SDS011;57054;51.978;4.498;2023-04-08T11:46:37;18.08;;;12.00;;
69783;SDS011;57054;51.978;4.498;2023-04-08T11:49:05;14.35;;;12.13;;
69783;SDS011;57054;51.978;4.498;2023-04-08T11:54:30;31.80;;;12.80;;
69783;SDS011;57054;51.978;4.498;2023-04-08T11:56:56;32.38;;;12.65;;
69783;SDS011;57054;51.978;4.498;2023-04-08T11:59:23;21.90;;;12.73;;
69783;SDS011;57054;51.978;4.498;2023-04-08T12:01:50;16.65;;;11.32;;
69783;SDS011;57054;51.978;4.498;2023-04-08T12:04:15;14.75;;;12.00;;
69783;SDS011;57054;51.978;4.498;2023-04-08T12:06:41;14.75;;;11.07;;
69783;SDS011;57054;51.978;4.498;2023-04-08T12:09:10;15.40;;;11.80;;
69783;SDS011;57054;51.978;4.498;2023-04-08T12:11:36;12.93;;;10.82;;
69783;SDS011;57054;51.978;4.498;2023-04-08T12:14:02;14.52;;;10.88;;
69783;SDS011;57054;51.978;4.498;2023-04-08T12:16:27;11.65;;;10.45;;
69783;SDS011;57054;51.978;4.498;2023-04-08T12:18:53;13.30;;;10.00;;
69783;SDS011;57054;51.978;4.498;2023-04-08T12:21:18;12.23;;;10.30;;
69783;SDS011;57054;51.978;4.498;2023-04-08T12:23:43;11.90;;;10.65;;
69783;SDS011;57054;51.978;4.498;2023-04-08T12:26:09;15.80;;;11.02;;
69783;SDS011;57054;51.978;4.498;2023-04-08T12:28:35;14.70;;;10.63;;
69783;SDS011;57054;51.978;4.498;2023-04-08T12:31:01;15.10;;;11.13;;
69783;SDS011;57054;51.978;4.498;2023-04-08T12:33:27;13.95;;;9.88;;
69783;SDS011;57054;51.978;4.498;2023-04-08T12:35:52;12.18;;;9.32;;
69783;SDS011;57054;51.978;4.498;2023-04-08T12:38:18;13.10;;;9.57;;
69783;SDS011;57054;51.978;4.498;2023-04-08T12:40:43;12.10;;;9.88;;
69783;SDS011;57054;51.978;4.498;2023-04-08T12:43:09;13.60;;;10.00;;
69783;SDS011;57054;51.978;4.498;2023-04-08T12:45:34;10.77;;;9.43;;
69783;SDS011;57054;51.978;4.498;2023-04-08T12:48:00;11.23;;;9.00;;
69783;SDS011;57054;51.978;4.498;2023-04-08T12:50:26;11.07;;;9.05;;
69783;SDS011;57054;51.978;4.498;2023-04-08T12:52:51;11.15;;;8.77;;
69783;SDS011;57054;51.978;4.498;2023-04-08T12:55:17;12.43;;;8.85;;
69783;SDS011;57054;51.978;4.498;2023-04-08T12:57:43;9.63;;;8.20;;
69783;SDS011;57054;51.978;4.498;2023-04-08T13:00:08;10.32;;;8.35;;
69783;SDS011;57054;51.978;4.498;2023-04-08T13:02:35;11.57;;;8.70;;
69783;SDS011;57054;51.978;4.498;2023-04-08T13:05:00;15.65;;;8.98;;
69783;SDS011;57054;51.978;4.498;2023-04-08T13:07:26;11.45;;;8.98;;
69783;SDS011;57054;51.978;4.498;2023-04-08T13:09:51;13.02;;;9.93;;
69783;SDS011;57054;51.978;4.498;2023-04-08T13:12:16;34.95;;;23.02;;
69783;SDS011;57054;51.978;4.498;2023-04-08T13:14:42;13.90;;;10.48;;
69783;SDS011;57054;51.978;4.498;2023-04-08T13:17:07;17.48;;;12.40;;
69783;SDS011;57054;51.978;4.498;2023-04-08T13:19:33;21.55;;;16.20;;
69783;SDS011;57054;51.978;4.498;2023-04-08T13:21:59;38.22;;;26.30;;
69783;SDS011;57054;51.978;4.498;2023-04-08T13:24:24;54.65;;;25.75;;
69783;SDS011;57054;51.978;4.498;2023-04-08T13:26:50;33.78;;;21.92;;
69783;SDS011;57054;51.978;4.498;2023-04-08T13:29:16;19.98;;;13.52;;
69783;SDS011;57054;51.978;4.498;2023-04-08T13:31:41;17.30;;;14.85;;
69783;SDS011;57054;51.978;4.498;2023-04-08T13:34:07;14.82;;;12.02;;
69783;SDS011;57054;51.978;4.498;2023-04-08T13:36:32;25.55;;;19.42;;
69783;SDS011;57054;51.978;4.498;2023-04-08T13:38:57;24.83;;;17.70;;
69783;SDS011;57054;51.978;4.498;2023-04-08T13:41:23;17.55;;;14.10;;
69783;SDS011;57054;51.978;4.498;2023-04-08T13:43:49;36.72;;;23.13;;
69783;SDS011;57054;51.978;4.498;2023-04-08T13:46:14;15.60;;;12.98;;
69783;SDS011;57054;51.978;4.498;2023-04-08T13:48:40;22.45;;;15.40;;
69783;SDS011;57054;51.978;4.498;2023-04-08T13:51:05;24.25;;;17.65;;
69783;SDS011;57054;51.978;4.498;2023-04-08T13:53:31;17.17;;;13.57;;
69783;SDS011;57054;51.978;4.498;2023-04-08T13:55:56;17.23;;;14.00;;
69783;SDS011;57054;51.978;4.498;2023-04-08T13:58:23;18.23;;;14.05;;
69783;SDS011;57054;51.978;4.498;2023-04-08T14:00:48;17.05;;;13.27;;
69783;SDS011;57054;51.978;4.498;2023-04-08T14:03:15;15.60;;;11.73;;
69783;SDS011;57054;51.978;4.498;2023-04-08T14:05:41;12.63;;;10.75;;
69783;SDS011;57054;51.978;4.498;2023-04-08T14:08:06;21.90;;;15.80;;
69783;SDS011;57054;51.978;4.498;2023-04-08T14:10:31;14.98;;;11.50;;
69783;SDS011;57054;51.978;4.498;2023-04-08T14:12:57;13.30;;;10.05;;
69783;SDS011;57054;51.978;4.498;2023-04-08T14:15:22;11.30;;;9.30;;
69783;SDS011;57054;51.978;4.498;2023-04-08T14:17:48;10.85;;;9.77;;
69783;SDS011;57054;51.978;4.498;2023-04-08T14:20:13;14.32;;;11.98;;
69783;SDS011;57054;51.978;4.498;2023-04-08T14:22:39;11.93;;;9.40;;
69783;SDS011;57054;51.978;4.498;2023-04-08T14:25:06;17.80;;;13.27;;
69783;SDS011;57054;51.978;4.498;2023-04-08T14:27:31;12.77;;;9.60;;
69783;SDS011;57054;51.978;4.498;2023-04-08T14:29:57;23.58;;;16.00;;
69783;SDS011;57054;51.978;4.498;2023-04-08T14:32:22;16.35;;;12.10;;
69783;SDS011;57054;51.978;4.498;2023-04-08T14:34:47;15.27;;;9.48;;
69783;SDS011;57054;51.978;4.498;2023-04-08T14:37:13;14.80;;;11.85;;
69783;SDS011;57054;51.978;4.498;2023-04-08T14:39:39;19.15;;;13.18;;